Terminal Aerodrome Forecast
Issued by NWS Louisville, KY

Home | Current Version | Previous Version | Text Only | Print | Product List | Glossary On
Versions: 1 2 3 4 5 6 7 8 9 10 11 12 13 14 15 16 17 18
626
FTUS43 KLMK 101734
TAFBWG
TAF
KBWG 101734Z 1018/1118 27009G15KT P6SM BKN035
     FM110100 27005KT P6SM BKN035
     FM110400 VRB03KT P6SM VCSH BKN020 PROB30 1106/1110 5SM -SHSN
      BKN010=

USA.gov is the U.S. government's official web portal to all federal, state and local government web resources and services.